sensor_id;sensor_type;location;lat;lon;timestamp;P1;durP1;ratioP1;P2;durP2;ratioP2
49109;SDS011;34921;52.320;16.142;2023-04-06T00:02:20;55.80;;;25.62;;
49109;SDS011;34921;52.320;16.142;2023-04-06T00:04:48;62.33;;;25.75;;
49109;SDS011;34921;52.320;16.142;2023-04-06T00:07:16;54.38;;;25.60;;
49109;SDS011;34921;52.320;16.142;2023-04-06T00:09:44;55.88;;;26.23;;
49109;SDS011;34921;52.320;16.142;2023-04-06T00:12:12;57.27;;;25.10;;
49109;SDS011;34921;52.320;16.142;2023-04-06T00:29:07;47.03;;;22.50;;
49109;SDS011;34921;52.320;16.142;2023-04-06T00:31:35;52.17;;;23.20;;
49109;SDS011;34921;52.320;16.142;2023-04-06T00:34:03;54.05;;;24.60;;
49109;SDS011;34921;52.320;16.142;2023-04-06T00:36:33;51.98;;;23.50;;
49109;SDS011;34921;52.320;16.142;2023-04-06T00:39:01;47.78;;;22.87;;
49109;SDS011;34921;52.320;16.142;2023-04-06T00:41:29;50.75;;;22.90;;
49109;SDS011;34921;52.320;16.142;2023-04-06T00:43:57;49.88;;;23.57;;
49109;SDS011;34921;52.320;16.142;2023-04-06T00:46:25;51.50;;;22.50;;
49109;SDS011;34921;52.320;16.142;2023-04-06T00:48:53;49.77;;;21.50;;
49109;SDS011;34921;52.320;16.142;2023-04-06T00:51:21;46.25;;;21.02;;
49109;SDS011;34921;52.320;16.142;2023-04-06T00:53:50;45.60;;;21.52;;
49109;SDS011;34921;52.320;16.142;2023-04-06T00:56:18;54.03;;;22.37;;
49109;SDS011;34921;52.320;16.142;2023-04-06T00:58:46;47.78;;;21.65;;
49109;SDS011;34921;52.320;16.142;2023-04-06T01:01:14;49.38;;;20.77;;
49109;SDS011;34921;52.320;16.142;2023-04-06T01:03:42;48.38;;;21.90;;
49109;SDS011;34921;52.320;16.142;2023-04-06T01:06:11;43.60;;;20.37;;
49109;SDS011;34921;52.320;16.142;2023-04-06T01:08:40;43.30;;;20.90;;
49109;SDS011;34921;52.320;16.142;2023-04-06T01:11:07;46.88;;;21.37;;
49109;SDS011;34921;52.320;16.142;2023-04-06T01:13:36;44.05;;;21.62;;
49109;SDS011;34921;52.320;16.142;2023-04-06T01:16:04;44.30;;;21.25;;
49109;SDS011;34921;52.320;16.142;2023-04-06T01:18:33;51.37;;;21.48;;
49109;SDS011;34921;52.320;16.142;2023-04-06T01:21:01;45.52;;;20.92;;
49109;SDS011;34921;52.320;16.142;2023-04-06T01:23:29;46.45;;;21.12;;
49109;SDS011;34921;52.320;16.142;2023-04-06T01:25:57;41.48;;;21.07;;
49109;SDS011;34921;52.320;16.142;2023-04-06T01:28:25;41.48;;;19.27;;
49109;SDS011;34921;52.320;16.142;2023-04-06T01:30:53;44.88;;;19.82;;
49109;SDS011;34921;52.320;16.142;2023-04-06T01:33:21;42.15;;;19.52;;
49109;SDS011;34921;52.320;16.142;2023-04-06T01:35:49;37.95;;;18.57;;
49109;SDS011;34921;52.320;16.142;2023-04-06T01:38:17;39.18;;;17.20;;
49109;SDS011;34921;52.320;16.142;2023-04-06T01:40:45;34.70;;;17.52;;
49109;SDS011;34921;52.320;16.142;2023-04-06T01:43:13;35.80;;;17.25;;
49109;SDS011;34921;52.320;16.142;2023-04-06T01:45:41;36.55;;;17.80;;
49109;SDS011;34921;52.320;16.142;2023-04-06T01:48:09;44.38;;;19.23;;
49109;SDS011;34921;52.320;16.142;2023-04-06T01:50:37;39.23;;;17.20;;
49109;SDS011;34921;52.320;16.142;2023-04-06T01:53:05;39.18;;;18.30;;
49109;SDS011;34921;52.320;16.142;2023-04-06T01:55:33;35.98;;;18.07;;
49109;SDS011;34921;52.320;16.142;2023-04-06T01:58:01;35.47;;;16.07;;
49109;SDS011;34921;52.320;16.142;2023-04-06T02:00:29;33.50;;;17.52;;
49109;SDS011;34921;52.320;16.142;2023-04-06T02:02:57;32.53;;;16.55;;
49109;SDS011;34921;52.320;16.142;2023-04-06T02:05:25;36.35;;;16.60;;
49109;SDS011;34921;52.320;16.142;2023-04-06T02:07:54;34.78;;;16.37;;
49109;SDS011;34921;52.320;16.142;2023-04-06T02:10:22;33.10;;;15.88;;
49109;SDS011;34921;52.320;16.142;2023-04-06T02:12:51;34.58;;;16.07;;
49109;SDS011;34921;52.320;16.142;2023-04-06T02:15:19;33.58;;;15.48;;
49109;SDS011;34921;52.320;16.142;2023-04-06T02:17:47;32.38;;;15.53;;
49109;SDS011;34921;52.320;16.142;2023-04-06T02:20:15;30.37;;;14.43;;
49109;SDS011;34921;52.320;16.142;2023-04-06T02:22:43;27.82;;;14.40;;
49109;SDS011;34921;52.320;16.142;2023-04-06T02:25:11;29.20;;;15.05;;
49109;SDS011;34921;52.320;16.142;2023-04-06T02:36:06;25.57;;;14.00;;
49109;SDS011;34921;52.320;16.142;2023-04-06T02:38:34;32.80;;;14.70;;
49109;SDS011;34921;52.320;16.142;2023-04-06T02:41:02;26.93;;;14.33;;
49109;SDS011;34921;52.320;16.142;2023-04-06T02:43:30;28.80;;;14.30;;
49109;SDS011;34921;52.320;16.142;2023-04-06T02:45:58;29.80;;;13.88;;
49109;SDS011;34921;52.320;16.142;2023-04-06T02:48:26;26.62;;;14.47;;
49109;SDS011;34921;52.320;16.142;2023-04-06T02:50:54;26.37;;;13.43;;
49109;SDS011;34921;52.320;16.142;2023-04-06T02:53:23;32.65;;;14.73;;
49109;SDS011;34921;52.320;16.142;2023-04-06T02:55:51;28.77;;;13.65;;
49109;SDS011;34921;52.320;16.142;2023-04-06T02:58:19;26.20;;;12.75;;
49109;SDS011;34921;52.320;16.142;2023-04-06T03:00:47;23.32;;;12.28;;
49109;SDS011;34921;52.320;16.142;2023-04-06T03:03:14;25.02;;;13.25;;
49109;SDS011;34921;52.320;16.142;2023-04-06T03:05:42;25.55;;;12.95;;
49109;SDS011;34921;52.320;16.142;2023-04-06T03:08:10;26.52;;;13.08;;
49109;SDS011;34921;52.320;16.142;2023-04-06T03:10:38;22.55;;;12.47;;
49109;SDS011;34921;52.320;16.142;2023-04-06T03:13:06;26.73;;;13.38;;
49109;SDS011;34921;52.320;16.142;2023-04-06T03:15:34;28.62;;;14.05;;
49109;SDS011;34921;52.320;16.142;2023-04-06T03:18:02;25.02;;;13.60;;
49109;SDS011;34921;52.320;16.142;2023-04-06T03:20:30;24.57;;;13.03;;
49109;SDS011;34921;52.320;16.142;2023-04-06T03:22:58;28.27;;;14.37;;
49109;SDS011;34921;52.320;16.142;2023-04-06T03:25:27;28.98;;;13.98;;
49109;SDS011;34921;52.320;16.142;2023-04-06T03:27:55;28.70;;;14.37;;
49109;SDS011;34921;52.320;16.142;2023-04-06T03:30:23;22.82;;;13.50;;
49109;SDS011;34921;52.320;16.142;2023-04-06T03:32:52;26.80;;;13.43;;
49109;SDS011;34921;52.320;16.142;2023-04-06T03:35:20;26.70;;;13.90;;
49109;SDS011;34921;52.320;16.142;2023-04-06T03:37:48;27.42;;;14.85;;
49109;SDS011;34921;52.320;16.142;2023-04-06T03:40:16;25.85;;;13.28;;
49109;SDS011;34921;52.320;16.142;2023-04-06T03:42:44;27.10;;;13.73;;
49109;SDS011;34921;52.320;16.142;2023-04-06T03:45:12;29.95;;;13.40;;
49109;SDS011;34921;52.320;16.142;2023-04-06T03:47:41;25.72;;;13.45;;
49109;SDS011;34921;52.320;16.142;2023-04-06T03:50:09;24.32;;;12.95;;
49109;SDS011;34921;52.320;16.142;2023-04-06T03:52:37;27.73;;;13.62;;
49109;SDS011;34921;52.320;16.142;2023-04-06T03:55:06;28.73;;;13.40;;
49109;SDS011;34921;52.320;16.142;2023-04-06T03:57:34;29.40;;;13.68;;
49109;SDS011;34921;52.320;16.142;2023-04-06T04:00:03;33.83;;;14.30;;
49109;SDS011;34921;52.320;16.142;2023-04-06T04:02:31;26.07;;;13.40;;
49109;SDS011;34921;52.320;16.142;2023-04-06T04:04:59;30.15;;;14.47;;
49109;SDS011;34921;52.320;16.142;2023-04-06T04:07:27;26.00;;;14.43;;
49109;SDS011;34921;52.320;16.142;2023-04-06T04:09:55;29.80;;;12.88;;
49109;SDS011;34921;52.320;16.142;2023-04-06T04:12:23;29.20;;;13.25;;
49109;SDS011;34921;52.320;16.142;2023-04-06T04:14:51;27.83;;;13.33;;
49109;SDS011;34921;52.320;16.142;2023-04-06T04:17:19;33.43;;;14.53;;
49109;SDS011;34921;52.320;16.142;2023-04-06T04:19:47;30.65;;;14.38;;
49109;SDS011;34921;52.320;16.142;2023-04-06T04:22:15;29.75;;;13.72;;
49109;SDS011;34921;52.320;16.142;2023-04-06T04:24:43;26.50;;;14.43;;
49109;SDS011;34921;52.320;16.142;2023-04-06T04:27:11;30.72;;;14.47;;
49109;SDS011;34921;52.320;16.142;2023-04-06T04:33:12;25.27;;;13.83;;
49109;SDS011;34921;52.320;16.142;2023-04-06T05:13:29;34.70;;;14.13;;
49109;SDS011;34921;52.320;16.142;2023-04-06T05:18:26;29.03;;;13.90;;
49109;SDS011;34921;52.320;16.142;2023-04-06T05:20:54;31.97;;;14.47;;
49109;SDS011;34921;52.320;16.142;2023-04-06T05:23:22;28.17;;;14.43;;
49109;SDS011;34921;52.320;16.142;2023-04-06T05:25:50;35.73;;;15.43;;
49109;SDS011;34921;52.320;16.142;2023-04-06T05:28:19;32.00;;;15.65;;
49109;SDS011;34921;52.320;16.142;2023-04-06T05:30:47;36.20;;;15.27;;
49109;SDS011;34921;52.320;16.142;2023-04-06T05:33:15;30.02;;;15.40;;
49109;SDS011;34921;52.320;16.142;2023-04-06T05:35:43;33.75;;;16.35;;
49109;SDS011;34921;52.320;16.142;2023-04-06T05:38:11;35.10;;;16.85;;
49109;SDS011;34921;52.320;16.142;2023-04-06T05:40:39;33.58;;;17.90;;
49109;SDS011;34921;52.320;16.142;2023-04-06T05:43:08;37.85;;;18.73;;
49109;SDS011;34921;52.320;16.142;2023-04-06T05:45:36;37.28;;;19.12;;
49109;SDS011;34921;52.320;16.142;2023-04-06T05:48:04;43.98;;;20.48;;
49109;SDS011;34921;52.320;16.142;2023-04-06T05:50:32;47.33;;;21.82;;
49109;SDS011;34921;52.320;16.142;2023-04-06T05:53:00;41.90;;;19.95;;
49109;SDS011;34921;52.320;16.142;2023-04-06T05:55:28;43.83;;;20.57;;
49109;SDS011;34921;52.320;16.142;2023-04-06T05:57:57;39.17;;;20.53;;
49109;SDS011;34921;52.320;16.142;2023-04-06T06:00:25;42.75;;;21.02;;
49109;SDS011;34921;52.320;16.142;2023-04-06T06:02:53;42.33;;;21.77;;
49109;SDS011;34921;52.320;16.142;2023-04-06T06:05:21;47.45;;;21.37;;
49109;SDS011;34921;52.320;16.142;2023-04-06T06:07:49;61.05;;;26.17;;
49109;SDS011;34921;52.320;16.142;2023-04-06T06:10:17;61.65;;;24.60;;
49109;SDS011;34921;52.320;16.142;2023-04-06T06:12:45;51.80;;;23.67;;
49109;SDS011;34921;52.320;16.142;2023-04-06T06:15:13;54.58;;;23.80;;
49109;SDS011;34921;52.320;16.142;2023-04-06T06:17:41;51.33;;;23.13;;
49109;SDS011;34921;52.320;16.142;2023-04-06T06:20:09;40.63;;;21.55;;
49109;SDS011;34921;52.320;16.142;2023-04-06T06:22:38;41.63;;;21.23;;
49109;SDS011;34921;52.320;16.142;2023-04-06T06:25:07;47.85;;;23.87;;
49109;SDS011;34921;52.320;16.142;2023-04-06T06:27:35;48.42;;;25.15;;
49109;SDS011;34921;52.320;16.142;2023-04-06T06:30:04;53.87;;;27.55;;
49109;SDS011;34921;52.320;16.142;2023-04-06T06:32:32;53.43;;;26.17;;
49109;SDS011;34921;52.320;16.142;2023-04-06T06:35:00;54.03;;;26.25;;
49109;SDS011;34921;52.320;16.142;2023-04-06T06:37:29;55.65;;;25.15;;
49109;SDS011;34921;52.320;16.142;2023-04-06T06:39:57;54.33;;;24.35;;
49109;SDS011;34921;52.320;16.142;2023-04-06T06:42:25;72.82;;;29.87;;
49109;SDS011;34921;52.320;16.142;2023-04-06T06:50:00;53.95;;;26.00;;
49109;SDS011;34921;52.320;16.142;2023-04-06T06:52:28;41.18;;;22.30;;
49109;SDS011;34921;52.320;16.142;2023-04-06T06:54:56;34.80;;;19.95;;
49109;SDS011;34921;52.320;16.142;2023-04-06T06:57:25;37.53;;;19.48;;
49109;SDS011;34921;52.320;16.142;2023-04-06T06:59:53;35.78;;;18.65;;
49109;SDS011;34921;52.320;16.142;2023-04-06T07:02:21;31.68;;;18.17;;
49109;SDS011;34921;52.320;16.142;2023-04-06T07:04:49;30.37;;;17.42;;
49109;SDS011;34921;52.320;16.142;2023-04-06T07:07:18;33.70;;;16.87;;
49109;SDS011;34921;52.320;16.142;2023-04-06T07:09:46;33.63;;;17.82;;
49109;SDS011;34921;52.320;16.142;2023-04-06T07:12:14;36.15;;;18.12;;
49109;SDS011;34921;52.320;16.142;2023-04-06T07:14:43;38.87;;;17.97;;
49109;SDS011;34921;52.320;16.142;2023-04-06T07:17:11;32.53;;;16.73;;
49109;SDS011;34921;52.320;16.142;2023-04-06T07:19:39;36.17;;;18.60;;
49109;SDS011;34921;52.320;16.142;2023-04-06T07:22:08;32.50;;;16.37;;
49109;SDS011;34921;52.320;16.142;2023-04-06T07:24:36;33.35;;;16.60;;
49109;SDS011;34921;52.320;16.142;2023-04-06T07:27:04;28.17;;;16.17;;
49109;SDS011;34921;52.320;16.142;2023-04-06T07:29:32;30.30;;;15.93;;
49109;SDS011;34921;52.320;16.142;2023-04-06T07:32:00;32.75;;;17.23;;
49109;SDS011;34921;52.320;16.142;2023-04-06T07:34:28;34.27;;;16.90;;
49109;SDS011;34921;52.320;16.142;2023-04-06T07:36:57;26.93;;;15.40;;
49109;SDS011;34921;52.320;16.142;2023-04-06T07:39:25;30.43;;;15.55;;
49109;SDS011;34921;52.320;16.142;2023-04-06T07:41:54;30.97;;;16.17;;
49109;SDS011;34921;52.320;16.142;2023-04-06T07:44:22;26.73;;;14.65;;
49109;SDS011;34921;52.320;16.142;2023-04-06T07:46:50;25.62;;;13.93;;
49109;SDS011;34921;52.320;16.142;2023-04-06T07:49:18;36.00;;;17.70;;
49109;SDS011;34921;52.320;16.142;2023-04-06T07:51:48;29.50;;;16.03;;
49109;SDS011;34921;52.320;16.142;2023-04-06T07:54:16;26.85;;;15.20;;
49109;SDS011;34921;52.320;16.142;2023-04-06T07:56:44;29.55;;;15.88;;
49109;SDS011;34921;52.320;16.142;2023-04-06T07:59:12;24.57;;;12.88;;
49109;SDS011;34921;52.320;16.142;2023-04-06T08:01:41;23.00;;;11.78;;
49109;SDS011;34921;52.320;16.142;2023-04-06T08:06:39;27.60;;;13.18;;
49109;SDS011;34921;52.320;16.142;2023-04-06T08:09:08;23.40;;;12.80;;
49109;SDS011;34921;52.320;16.142;2023-04-06T08:11:36;18.95;;;10.38;;
49109;SDS011;34921;52.320;16.142;2023-04-06T08:14:04;24.18;;;11.65;;
49109;SDS011;34921;52.320;16.142;2023-04-06T08:16:32;18.85;;;9.98;;
49109;SDS011;34921;52.320;16.142;2023-04-06T08:19:01;14.60;;;9.10;;
49109;SDS011;34921;52.320;16.142;2023-04-06T08:21:29;16.60;;;10.32;;
49109;SDS011;34921;52.320;16.142;2023-04-06T08:23:57;16.37;;;10.68;;
49109;SDS011;34921;52.320;16.142;2023-04-06T08:26:25;13.98;;;9.03;;
49109;SDS011;34921;52.320;16.142;2023-04-06T08:28:53;14.85;;;8.73;;
49109;SDS011;34921;52.320;16.142;2023-04-06T08:31:21;10.23;;;6.90;;
49109;SDS011;34921;52.320;16.142;2023-04-06T08:33:49;17.73;;;9.73;;
49109;SDS011;34921;52.320;16.142;2023-04-06T08:36:17;16.82;;;8.30;;
49109;SDS011;34921;52.320;16.142;2023-04-06T08:38:50;12.88;;;7.92;;
49109;SDS011;34921;52.320;16.142;2023-04-06T08:41:18;11.00;;;7.17;;
49109;SDS011;34921;52.320;16.142;2023-04-06T08:43:50;16.32;;;8.95;;
49109;SDS011;34921;52.320;16.142;2023-04-06T08:46:28;14.25;;;8.50;;
49109;SDS011;34921;52.320;16.142;2023-04-06T08:48:58;14.98;;;8.18;;
49109;SDS011;34921;52.320;16.142;2023-04-06T08:51:28;11.95;;;7.40;;
49109;SDS011;34921;52.320;16.142;2023-04-06T08:53:58;10.63;;;7.17;;
49109;SDS011;34921;52.320;16.142;2023-04-06T08:56:27;11.10;;;7.17;;
49109;SDS011;34921;52.320;16.142;2023-04-06T08:58:55;11.35;;;7.50;;
49109;SDS011;34921;52.320;16.142;2023-04-06T09:01:27;12.03;;;7.80;;
49109;SDS011;34921;52.320;16.142;2023-04-06T09:03:59;11.13;;;7.27;;
49109;SDS011;34921;52.320;16.142;2023-04-06T09:06:27;13.05;;;8.00;;
49109;SDS011;34921;52.320;16.142;2023-04-06T09:08:56;14.35;;;8.00;;
49109;SDS011;34921;52.320;16.142;2023-04-06T09:11:25;11.73;;;6.97;;
49109;SDS011;34921;52.320;16.142;2023-04-06T09:13:55;12.33;;;6.90;;
49109;SDS011;34921;52.320;16.142;2023-04-06T09:16:24;10.38;;;6.25;;
49109;SDS011;34921;52.320;16.142;2023-04-06T09:18:53;9.45;;;6.70;;
49109;SDS011;34921;52.320;16.142;2023-04-06T09:21:21;9.30;;;5.75;;
49109;SDS011;34921;52.320;16.142;2023-04-06T09:23:57;9.40;;;5.08;;
49109;SDS011;34921;52.320;16.142;2023-04-06T09:26:27;9.63;;;5.17;;
49109;SDS011;34921;52.320;16.142;2023-04-06T09:28:58;12.20;;;5.45;;
49109;SDS011;34921;52.320;16.142;2023-04-06T09:35:11;13.35;;;9.20;;
49109;SDS011;34921;52.320;16.142;2023-04-06T09:37:39;14.13;;;7.43;;
49109;SDS011;34921;52.320;16.142;2023-04-06T09:40:07;9.83;;;5.90;;
49109;SDS011;34921;52.320;16.142;2023-04-06T09:42:36;10.53;;;5.62;;
49109;SDS011;34921;52.320;16.142;2023-04-06T09:45:04;10.65;;;4.78;;
49109;SDS011;34921;52.320;16.142;2023-04-06T09:47:32;14.03;;;11.03;;
49109;SDS011;34921;52.320;16.142;2023-04-06T09:50:00;10.63;;;6.45;;
49109;SDS011;34921;52.320;16.142;2023-04-06T09:52:36;7.85;;;4.75;;
49109;SDS011;34921;52.320;16.142;2023-04-06T09:55:06;9.40;;;4.83;;
49109;SDS011;34921;52.320;16.142;2023-04-06T09:57:43;10.45;;;5.25;;
49109;SDS011;34921;52.320;16.142;2023-04-06T10:00:17;10.28;;;5.92;;
49109;SDS011;34921;52.320;16.142;2023-04-06T10:05:59;6.92;;;4.03;;
49109;SDS011;34921;52.320;16.142;2023-04-06T10:08:32;10.00;;;5.72;;
49109;SDS011;34921;52.320;16.142;2023-04-06T10:11:01;6.05;;;3.83;;
49109;SDS011;34921;52.320;16.142;2023-04-06T10:17:31;9.00;;;5.62;;
49109;SDS011;34921;52.320;16.142;2023-04-06T10:23:47;8.95;;;5.10;;
49109;SDS011;34921;52.320;16.142;2023-04-06T10:26:19;8.80;;;4.50;;
49109;SDS011;34921;52.320;16.142;2023-04-06T10:28:48;6.77;;;3.60;;
49109;SDS011;34921;52.320;16.142;2023-04-06T10:31:27;7.92;;;4.30;;
49109;SDS011;34921;52.320;16.142;2023-04-06T10:36:25;6.75;;;4.03;;
49109;SDS011;34921;52.320;16.142;2023-04-06T10:39:01;8.33;;;4.58;;
49109;SDS011;34921;52.320;16.142;2023-04-06T10:41:34;7.65;;;4.30;;
49109;SDS011;34921;52.320;16.142;2023-04-06T10:44:03;6.83;;;3.67;;
49109;SDS011;34921;52.320;16.142;2023-04-06T10:46:32;7.30;;;4.37;;
49109;SDS011;34921;52.320;16.142;2023-04-06T10:49:11;11.20;;;4.63;;
49109;SDS011;34921;52.320;16.142;2023-04-06T10:51:39;10.23;;;4.90;;
49109;SDS011;34921;52.320;16.142;2023-04-06T10:54:07;9.70;;;4.83;;
49109;SDS011;34921;52.320;16.142;2023-04-06T10:56:37;7.80;;;5.25;;
49109;SDS011;34921;52.320;16.142;2023-04-06T10:59:06;10.25;;;6.08;;
49109;SDS011;34921;52.320;16.142;2023-04-06T11:01:35;10.08;;;6.12;;
49109;SDS011;34921;52.320;16.142;2023-04-06T11:04:03;10.28;;;5.33;;
49109;SDS011;34921;52.320;16.142;2023-04-06T11:06:57;8.88;;;5.67;;
49109;SDS011;34921;52.320;16.142;2023-04-06T11:09:29;13.43;;;7.62;;
49109;SDS011;34921;52.320;16.142;2023-04-06T11:11:59;14.60;;;7.92;;
49109;SDS011;34921;52.320;16.142;2023-04-06T11:14:28;17.80;;;9.70;;
49109;SDS011;34921;52.320;16.142;2023-04-06T11:16:56;14.80;;;8.80;;
49109;SDS011;34921;52.320;16.142;2023-04-06T11:19:24;20.57;;;12.80;;
49109;SDS011;34921;52.320;16.142;2023-04-06T11:21:52;19.82;;;12.63;;
49109;SDS011;34921;52.320;16.142;2023-04-06T11:24:21;16.20;;;9.67;;
49109;SDS011;34921;52.320;16.142;2023-04-06T11:26:57;16.95;;;8.53;;
49109;SDS011;34921;52.320;16.142;2023-04-06T11:29:27;9.88;;;6.35;;
49109;SDS011;34921;52.320;16.142;2023-04-06T11:32:03;9.10;;;5.75;;
49109;SDS011;34921;52.320;16.142;2023-04-06T11:34:33;12.55;;;6.95;;
49109;SDS011;34921;52.320;16.142;2023-04-06T11:37:07;12.45;;;7.87;;
49109;SDS011;34921;52.320;16.142;2023-04-06T11:39:44;9.58;;;6.30;;
49109;SDS011;34921;52.320;16.142;2023-04-06T11:42:22;10.47;;;6.67;;
49109;SDS011;34921;52.320;16.142;2023-04-06T11:44:53;9.15;;;6.53;;
49109;SDS011;34921;52.320;16.142;2023-04-06T11:47:32;13.55;;;8.88;;
49109;SDS011;34921;52.320;16.142;2023-04-06T11:50:06;23.10;;;11.75;;
49109;SDS011;34921;52.320;16.142;2023-04-06T11:52:35;15.00;;;8.33;;
49109;SDS011;34921;52.320;16.142;2023-04-06T11:57:44;14.45;;;6.87;;
49109;SDS011;34921;52.320;16.142;2023-04-06T12:00:13;10.70;;;6.60;;
49109;SDS011;34921;52.320;16.142;2023-04-06T12:02:44;10.93;;;6.47;;
49109;SDS011;34921;52.320;16.142;2023-04-06T12:05:13;13.80;;;7.85;;
49109;SDS011;34921;52.320;16.142;2023-04-06T12:07:42;11.45;;;7.62;;
49109;SDS011;34921;52.320;16.142;2023-04-06T12:10:10;13.50;;;7.00;;
49109;SDS011;34921;52.320;16.142;2023-04-06T12:12:38;11.77;;;6.77;;
49109;SDS011;34921;52.320;16.142;2023-04-06T12:15:06;12.40;;;7.42;;
49109;SDS011;34921;52.320;16.142;2023-04-06T12:17:34;10.63;;;7.05;;
49109;SDS011;34921;52.320;16.142;2023-04-06T12:20:04;12.98;;;7.08;;
49109;SDS011;34921;52.320;16.142;2023-04-06T12:22:33;14.65;;;7.67;;
49109;SDS011;34921;52.320;16.142;2023-04-06T12:25:01;13.70;;;10.18;;
49109;SDS011;34921;52.320;16.142;2023-04-06T12:27:29;19.75;;;11.40;;
49109;SDS011;34921;52.320;16.142;2023-04-06T12:29:57;15.48;;;8.73;;
49109;SDS011;34921;52.320;16.142;2023-04-06T12:32:25;13.03;;;7.75;;
49109;SDS011;34921;52.320;16.142;2023-04-06T12:34:53;10.65;;;6.37;;
49109;SDS011;34921;52.320;16.142;2023-04-06T12:37:22;10.38;;;6.40;;
49109;SDS011;34921;52.320;16.142;2023-04-06T12:39:49;9.50;;;5.85;;
49109;SDS011;34921;52.320;16.142;2023-04-06T12:42:18;9.25;;;6.30;;
49109;SDS011;34921;52.320;16.142;2023-04-06T12:44:46;10.95;;;6.62;;
49109;SDS011;34921;52.320;16.142;2023-04-06T12:47:14;7.17;;;5.47;;
49109;SDS011;34921;52.320;16.142;2023-04-06T12:49:45;8.93;;;5.30;;
49109;SDS011;34921;52.320;16.142;2023-04-06T12:52:14;8.88;;;5.97;;
49109;SDS011;34921;52.320;16.142;2023-04-06T12:54:42;30.43;;;23.50;;
49109;SDS011;34921;52.320;16.142;2023-04-06T12:57:10;15.48;;;8.03;;
49109;SDS011;34921;52.320;16.142;2023-04-06T12:59:38;13.15;;;6.03;;
49109;SDS011;34921;52.320;16.142;2023-04-06T13:02:07;9.55;;;6.20;;
49109;SDS011;34921;52.320;16.142;2023-04-06T13:04:35;8.87;;;5.80;;
49109;SDS011;34921;52.320;16.142;2023-04-06T13:07:04;10.85;;;6.42;;
49109;SDS011;34921;52.320;16.142;2023-04-06T13:09:32;11.50;;;6.25;;
49109;SDS011;34921;52.320;16.142;2023-04-06T13:12:00;11.48;;;6.60;;
49109;SDS011;34921;52.320;16.142;2023-04-06T13:14:28;10.05;;;5.67;;
49109;SDS011;34921;52.320;16.142;2023-04-06T13:16:57;10.43;;;6.80;;
49109;SDS011;34921;52.320;16.142;2023-04-06T13:19:25;12.50;;;6.90;;
49109;SDS011;34921;52.320;16.142;2023-04-06T13:21:54;11.70;;;6.22;;
49109;SDS011;34921;52.320;16.142;2023-04-06T13:24:22;13.17;;;6.33;;
49109;SDS011;34921;52.320;16.142;2023-04-06T13:26:50;8.20;;;5.63;;
49109;SDS011;34921;52.320;16.142;2023-04-06T13:29:18;9.43;;;5.50;;
49109;SDS011;34921;52.320;16.142;2023-04-06T13:31:46;12.47;;;7.90;;
49109;SDS011;34921;52.320;16.142;2023-04-06T13:34:14;20.85;;;11.68;;
49109;SDS011;34921;52.320;16.142;2023-04-06T13:36:42;27.02;;;16.35;;
49109;SDS011;34921;52.320;16.142;2023-04-06T13:39:11;25.43;;;14.47;;
49109;SDS011;34921;52.320;16.142;2023-04-06T13:41:38;18.62;;;10.82;;
49109;SDS011;34921;52.320;16.142;2023-04-06T13:44:07;8.80;;;5.45;;
49109;SDS011;34921;52.320;16.142;2023-04-06T13:46:36;8.75;;;5.22;;
49109;SDS011;34921;52.320;16.142;2023-04-06T13:49:04;9.20;;;5.33;;
49109;SDS011;34921;52.320;16.142;2023-04-06T13:51:32;9.95;;;6.20;;
49109;SDS011;34921;52.320;16.142;2023-04-06T13:54:00;10.43;;;5.60;;
49109;SDS011;34921;52.320;16.142;2023-04-06T13:56:28;7.53;;;4.90;;
49109;SDS011;34921;52.320;16.142;2023-04-06T13:58:56;10.50;;;5.42;;
49109;SDS011;34921;52.320;16.142;2023-04-06T14:01:24;11.20;;;5.87;;
49109;SDS011;34921;52.320;16.142;2023-04-06T14:03:54;7.55;;;5.15;;
49109;SDS011;34921;52.320;16.142;2023-04-06T14:06:22;7.30;;;4.35;;
49109;SDS011;34921;52.320;16.142;2023-04-06T14:08:50;8.33;;;4.70;;
49109;SDS011;34921;52.320;16.142;2023-04-06T14:11:19;10.05;;;4.80;;
49109;SDS011;34921;52.320;16.142;2023-04-06T14:13:47;9.45;;;5.05;;
49109;SDS011;34921;52.320;16.142;2023-04-06T14:16:15;8.73;;;4.70;;
49109;SDS011;34921;52.320;16.142;2023-04-06T14:18:46;8.93;;;5.25;;
49109;SDS011;34921;52.320;16.142;2023-04-06T14:21:14;10.32;;;5.78;;
49109;SDS011;34921;52.320;16.142;2023-04-06T14:23:42;9.73;;;5.47;;
49109;SDS011;34921;52.320;16.142;2023-04-06T14:26:10;8.40;;;5.33;;
49109;SDS011;34921;52.320;16.142;2023-04-06T14:28:39;10.28;;;5.90;;
49109;SDS011;34921;52.320;16.142;2023-04-06T14:31:10;7.42;;;4.80;;
49109;SDS011;34921;52.320;16.142;2023-04-06T14:33:40;8.88;;;5.10;;
49109;SDS011;34921;52.320;16.142;2023-04-06T14:36:09;8.95;;;5.37;;
49109;SDS011;34921;52.320;16.142;2023-04-06T14:38:37;9.23;;;5.53;;
49109;SDS011;34921;52.320;16.142;2023-04-06T14:41:07;7.72;;;5.50;;
49109;SDS011;34921;52.320;16.142;2023-04-06T14:43:36;7.37;;;4.70;;
49109;SDS011;34921;52.320;16.142;2023-04-06T14:46:04;7.92;;;3.87;;
49109;SDS011;34921;52.320;16.142;2023-04-06T14:48:32;7.50;;;4.70;;
49109;SDS011;34921;52.320;16.142;2023-04-06T14:51:00;9.93;;;5.83;;
49109;SDS011;34921;52.320;16.142;2023-04-06T14:53:28;10.80;;;5.20;;
49109;SDS011;34921;52.320;16.142;2023-04-06T14:55:56;8.20;;;4.97;;
49109;SDS011;34921;52.320;16.142;2023-04-06T14:58:25;10.20;;;5.17;;
49109;SDS011;34921;52.320;16.142;2023-04-06T15:00:56;8.25;;;5.03;;
49109;SDS011;34921;52.320;16.142;2023-04-06T15:03:28;8.08;;;4.75;;
49109;SDS011;34921;52.320;16.142;2023-04-06T15:05:57;10.03;;;5.40;;
49109;SDS011;34921;52.320;16.142;2023-04-06T15:08:25;8.80;;;4.97;;
49109;SDS011;34921;52.320;16.142;2023-04-06T15:10:53;10.93;;;5.10;;
49109;SDS011;34921;52.320;16.142;2023-04-06T15:13:24;13.43;;;7.83;;
49109;SDS011;34921;52.320;16.142;2023-04-06T15:15:52;18.77;;;10.25;;
49109;SDS011;34921;52.320;16.142;2023-04-06T15:18:20;13.35;;;7.35;;
49109;SDS011;34921;52.320;16.142;2023-04-06T15:20:48;12.05;;;6.28;;
49109;SDS011;34921;52.320;16.142;2023-04-06T15:23:16;9.10;;;5.55;;
49109;SDS011;34921;52.320;16.142;2023-04-06T15:25:47;9.18;;;5.58;;
49109;SDS011;34921;52.320;16.142;2023-04-06T15:28:15;18.15;;;10.08;;
49109;SDS011;34921;52.320;16.142;2023-04-06T15:30:43;12.95;;;8.60;;
49109;SDS011;34921;52.320;16.142;2023-04-06T15:33:11;20.08;;;15.70;;
49109;SDS011;34921;52.320;16.142;2023-04-06T15:35:39;13.88;;;7.47;;
49109;SDS011;34921;52.320;16.142;2023-04-06T15:38:09;18.90;;;11.10;;
49109;SDS011;34921;52.320;16.142;2023-04-06T15:40:45;13.98;;;8.03;;
49109;SDS011;34921;52.320;16.142;2023-04-06T15:43:14;12.65;;;5.80;;
49109;SDS011;34921;52.320;16.142;2023-04-06T15:45:42;10.13;;;6.35;;
49109;SDS011;34921;52.320;16.142;2023-04-06T15:48:10;15.63;;;11.48;;
49109;SDS011;34921;52.320;16.142;2023-04-06T15:50:38;15.13;;;7.83;;
49109;SDS011;34921;52.320;16.142;2023-04-06T15:53:06;8.13;;;6.00;;
49109;SDS011;34921;52.320;16.142;2023-04-06T15:55:34;10.33;;;6.00;;
49109;SDS011;34921;52.320;16.142;2023-04-06T15:58:02;14.13;;;6.42;;
49109;SDS011;34921;52.320;16.142;2023-04-06T16:00:30;14.47;;;9.30;;